sensor_id;sensor_type;location;lat;lon;timestamp;pressure;altitude;pressure_sealevel;temperature;humidity
12536;BME280;6334;48.696;2.114;2023-12-07T00:02:01;100228.16;;;5.07;85.26
12536;BME280;6334;48.696;2.114;2023-12-07T00:04:31;100228.27;;;5.23;86.03
12536;BME280;6334;48.696;2.114;2023-12-07T00:07:02;100222.52;;;5.12;85.11
12536;BME280;6334;48.696;2.114;2023-12-07T00:09:32;100224.34;;;5.19;84.89
12536;BME280;6334;48.696;2.114;2023-12-07T00:12:04;100223.90;;;5.35;84.36
12536;BME280;6334;48.696;2.114;2023-12-07T00:14:34;100212.54;;;5.53;84.42
12536;BME280;6334;48.696;2.114;2023-12-07T00:17:05;100209.83;;;5.18;84.66
12536;BME280;6334;48.696;2.114;2023-12-07T00:19:35;100201.20;;;5.16;85.28
12536;BME280;6334;48.696;2.114;2023-12-07T00:22:06;100200.19;;;5.27;84.45
12536;BME280;6334;48.696;2.114;2023-12-07T00:24:36;100196.05;;;5.24;85.21
12536;BME280;6334;48.696;2.114;2023-12-07T00:27:07;100193.77;;;4.95;85.69
12536;BME280;6334;48.696;2.114;2023-12-07T00:29:37;100191.60;;;5.19;84.83
12536;BME280;6334;48.696;2.114;2023-12-07T00:32:09;100197.69;;;4.80;86.30
12536;BME280;6334;48.696;2.114;2023-12-07T00:34:39;100200.42;;;5.11;85.10
12536;BME280;6334;48.696;2.114;2023-12-07T00:37:10;100200.50;;;5.33;84.63
12536;BME280;6334;48.696;2.114;2023-12-07T00:39:41;100203.87;;;5.30;84.92
12536;BME280;6334;48.696;2.114;2023-12-07T00:42:11;100201.83;;;5.40;84.07
12536;BME280;6334;48.696;2.114;2023-12-07T00:44:41;100206.00;;;5.22;84.43
12536;BME280;6334;48.696;2.114;2023-12-07T00:47:12;100208.29;;;5.03;84.93
12536;BME280;6334;48.696;2.114;2023-12-07T00:49:41;100205.82;;;5.48;83.52
12536;BME280;6334;48.696;2.114;2023-12-07T00:52:12;100190.31;;;5.41;83.07
12536;BME280;6334;48.696;2.114;2023-12-07T00:54:42;100181.91;;;5.23;83.25
12536;BME280;6334;48.696;2.114;2023-12-07T00:57:13;100208.23;;;5.51;83.79
12536;BME280;6334;48.696;2.114;2023-12-07T00:59:43;100210.02;;;5.07;84.67
12536;BME280;6334;48.696;2.114;2023-12-07T01:02:14;100208.11;;;5.47;83.05
12536;BME280;6334;48.696;2.114;2023-12-07T01:04:44;100208.41;;;5.45;83.29
12536;BME280;6334;48.696;2.114;2023-12-07T01:07:16;100212.83;;;5.48;83.33
12536;BME280;6334;48.696;2.114;2023-12-07T01:09:46;100213.84;;;5.65;82.07
12536;BME280;6334;48.696;2.114;2023-12-07T01:12:17;100212.02;;;5.63;82.65
12536;BME280;6334;48.696;2.114;2023-12-07T01:14:47;100185.77;;;5.20;83.25
12536;BME280;6334;48.696;2.114;2023-12-07T01:17:18;100201.73;;;5.33;84.29
12536;BME280;6334;48.696;2.114;2023-12-07T01:19:48;100149.44;;;5.10;84.11
12536;BME280;6334;48.696;2.114;2023-12-07T01:22:18;100194.78;;;5.36;83.54
12536;BME280;6334;48.696;2.114;2023-12-07T01:24:49;100185.67;;;5.34;83.60
12536;BME280;6334;48.696;2.114;2023-12-07T01:27:19;100187.22;;;5.32;84.00
12536;BME280;6334;48.696;2.114;2023-12-07T01:29:50;100178.98;;;5.40;84.10
12536;BME280;6334;48.696;2.114;2023-12-07T01:32:20;100177.33;;;5.11;84.57
12536;BME280;6334;48.696;2.114;2023-12-07T01:34:51;100176.88;;;5.28;83.33
12536;BME280;6334;48.696;2.114;2023-12-07T01:37:21;100178.36;;;5.07;85.41
12536;BME280;6334;48.696;2.114;2023-12-07T01:39:52;100175.75;;;4.86;85.71
12536;BME280;6334;48.696;2.114;2023-12-07T01:42:22;100176.57;;;4.90;86.02
12536;BME280;6334;48.696;2.114;2023-12-07T01:44:53;100178.35;;;5.20;84.47
12536;BME280;6334;48.696;2.114;2023-12-07T01:47:23;100179.64;;;5.11;84.65
12536;BME280;6334;48.696;2.114;2023-12-07T01:49:53;100180.94;;;5.05;85.06
12536;BME280;6334;48.696;2.114;2023-12-07T01:52:25;100160.69;;;5.14;83.88
12536;BME280;6334;48.696;2.114;2023-12-07T01:54:54;100179.30;;;5.11;84.12
12536;BME280;6334;48.696;2.114;2023-12-07T01:57:25;100189.82;;;5.28;83.21
12536;BME280;6334;48.696;2.114;2023-12-07T01:59:55;100181.62;;;5.39;83.63
12536;BME280;6334;48.696;2.114;2023-12-07T02:02:26;100182.83;;;5.61;83.35
12536;BME280;6334;48.696;2.114;2023-12-07T02:04:56;100181.69;;;5.37;83.40
12536;BME280;6334;48.696;2.114;2023-12-07T02:07:27;100177.86;;;5.03;84.71
12536;BME280;6334;48.696;2.114;2023-12-07T02:09:57;100174.95;;;5.27;83.60
12536;BME280;6334;48.696;2.114;2023-12-07T02:12:28;100174.96;;;5.33;83.84
12536;BME280;6334;48.696;2.114;2023-12-07T02:14:58;100166.71;;;5.33;84.20
12536;BME280;6334;48.696;2.114;2023-12-07T02:17:32;100162.43;;;4.81;85.46
12536;BME280;6334;48.696;2.114;2023-12-07T02:22:53;100157.79;;;5.19;84.55
12536;BME280;6334;48.696;2.114;2023-12-07T02:25:26;100158.35;;;4.91;85.12
12536;BME280;6334;48.696;2.114;2023-12-07T02:27:52;100158.63;;;5.26;84.30
12536;BME280;6334;48.696;2.114;2023-12-07T02:30:22;100155.39;;;4.98;84.95
12536;BME280;6334;48.696;2.114;2023-12-07T02:32:53;100145.73;;;5.25;83.86
12536;BME280;6334;48.696;2.114;2023-12-07T02:35:24;100155.80;;;5.03;84.21
12536;BME280;6334;48.696;2.114;2023-12-07T02:37:54;100159.70;;;5.22;83.19
12536;BME280;6334;48.696;2.114;2023-12-07T02:40:25;100161.32;;;5.24;83.59
12536;BME280;6334;48.696;2.114;2023-12-07T02:42:56;100163.22;;;4.44;85.95
12536;BME280;6334;48.696;2.114;2023-12-07T02:45:25;100158.81;;;5.07;84.52
12536;BME280;6334;48.696;2.114;2023-12-07T02:47:57;100153.84;;;4.74;85.92
12536;BME280;6334;48.696;2.114;2023-12-07T02:50:26;100156.75;;;5.07;84.67
12536;BME280;6334;48.696;2.114;2023-12-07T02:52:57;100164.17;;;5.16;84.20
12536;BME280;6334;48.696;2.114;2023-12-07T02:55:27;100167.14;;;5.07;84.46
12536;BME280;6334;48.696;2.114;2023-12-07T02:57:58;100094.00;;;4.48;84.74
12536;BME280;6334;48.696;2.114;2023-12-07T03:00:28;100179.34;;;4.76;84.64
12536;BME280;6334;48.696;2.114;2023-12-07T03:02:59;100170.42;;;5.14;84.41
12536;BME280;6334;48.696;2.114;2023-12-07T03:05:29;100150.83;;;5.10;84.65
12536;BME280;6334;48.696;2.114;2023-12-07T03:08:00;100125.42;;;4.94;85.62
12536;BME280;6334;48.696;2.114;2023-12-07T03:10:31;100063.58;;;4.72;84.86
12536;BME280;6334;48.696;2.114;2023-12-07T03:13:01;100103.98;;;4.87;84.73
12536;BME280;6334;48.696;2.114;2023-12-07T03:15:32;100099.95;;;4.68;85.51
12536;BME280;6334;48.696;2.114;2023-12-07T03:18:02;100105.55;;;4.95;84.77
12536;BME280;6334;48.696;2.114;2023-12-07T03:20:33;100107.69;;;5.15;84.01
12536;BME280;6334;48.696;2.114;2023-12-07T03:23:03;100110.96;;;5.06;84.23
12536;BME280;6334;48.696;2.114;2023-12-07T03:25:34;100108.92;;;5.37;83.47
12536;BME280;6334;48.696;2.114;2023-12-07T03:28:04;100103.21;;;5.13;83.97
12536;BME280;6334;48.696;2.114;2023-12-07T03:30:35;100093.16;;;5.06;84.34
12536;BME280;6334;48.696;2.114;2023-12-07T03:33:05;100084.48;;;5.11;83.86
12536;BME280;6334;48.696;2.114;2023-12-07T03:35:35;100080.82;;;4.86;84.31
12536;BME280;6334;48.696;2.114;2023-12-07T03:38:06;100077.54;;;4.90;84.05
12536;BME280;6334;48.696;2.114;2023-12-07T03:40:36;100076.00;;;4.78;84.14
12536;BME280;6334;48.696;2.114;2023-12-07T03:43:07;100074.78;;;4.92;84.28
12536;BME280;6334;48.696;2.114;2023-12-07T03:45:38;100082.67;;;5.14;83.80
12536;BME280;6334;48.696;2.114;2023-12-07T03:48:09;100073.00;;;4.61;84.62
12536;BME280;6334;48.696;2.114;2023-12-07T03:50:39;100064.76;;;4.82;85.05
12536;BME280;6334;48.696;2.114;2023-12-07T03:53:10;100061.96;;;5.04;83.22
12536;BME280;6334;48.696;2.114;2023-12-07T03:55:41;100072.66;;;5.10;83.92
12536;BME280;6334;48.696;2.114;2023-12-07T03:58:11;100095.33;;;4.74;84.99
12536;BME280;6334;48.696;2.114;2023-12-07T04:00:41;100109.61;;;4.97;83.61
12536;BME280;6334;48.696;2.114;2023-12-07T04:03:12;100112.46;;;5.01;83.55
12536;BME280;6334;48.696;2.114;2023-12-07T04:05:42;100095.02;;;4.81;83.75
12536;BME280;6334;48.696;2.114;2023-12-07T04:08:13;100079.11;;;4.49;84.51
12536;BME280;6334;48.696;2.114;2023-12-07T04:10:43;100090.65;;;4.89;83.96
12536;BME280;6334;48.696;2.114;2023-12-07T04:13:14;100098.69;;;4.71;83.99
12536;BME280;6334;48.696;2.114;2023-12-07T04:15:44;100095.77;;;4.63;84.58
12536;BME280;6334;48.696;2.114;2023-12-07T04:18:15;100100.66;;;4.77;84.41
12536;BME280;6334;48.696;2.114;2023-12-07T04:20:45;100097.94;;;4.58;84.65
12536;BME280;6334;48.696;2.114;2023-12-07T04:23:15;100048.20;;;4.28;84.94
12536;BME280;6334;48.696;2.114;2023-12-07T04:25:46;100106.48;;;5.04;84.04
12536;BME280;6334;48.696;2.114;2023-12-07T04:28:16;100106.69;;;5.01;83.65
12536;BME280;6334;48.696;2.114;2023-12-07T04:30:47;100098.98;;;4.97;84.14
12536;BME280;6334;48.696;2.114;2023-12-07T04:33:17;100092.20;;;4.73;84.19
12536;BME280;6334;48.696;2.114;2023-12-07T04:35:48;100079.11;;;4.76;84.42
12536;BME280;6334;48.696;2.114;2023-12-07T04:38:18;100071.04;;;4.76;85.47
12536;BME280;6334;48.696;2.114;2023-12-07T04:40:49;100062.59;;;4.71;84.28
12536;BME280;6334;48.696;2.114;2023-12-07T04:43:19;100051.78;;;4.38;85.42
12536;BME280;6334;48.696;2.114;2023-12-07T04:45:50;100041.36;;;4.81;84.78
12536;BME280;6334;48.696;2.114;2023-12-07T04:48:20;100032.59;;;4.73;84.39
12536;BME280;6334;48.696;2.114;2023-12-07T04:50:50;100034.11;;;4.69;85.12
12536;BME280;6334;48.696;2.114;2023-12-07T04:53:21;100026.34;;;4.74;84.24
12536;BME280;6334;48.696;2.114;2023-12-07T04:55:51;100019.36;;;4.68;85.00
12536;BME280;6334;48.696;2.114;2023-12-07T04:58:22;100023.98;;;4.68;85.76
12536;BME280;6334;48.696;2.114;2023-12-07T05:00:53;100012.89;;;4.31;85.33
12536;BME280;6334;48.696;2.114;2023-12-07T05:03:24;100018.87;;;4.34;86.23
12536;BME280;6334;48.696;2.114;2023-12-07T05:05:55;100006.55;;;4.64;84.82
12536;BME280;6334;48.696;2.114;2023-12-07T05:08:26;100007.29;;;4.45;85.94
12536;BME280;6334;48.696;2.114;2023-12-07T05:10:57;100005.47;;;4.13;86.53
12536;BME280;6334;48.696;2.114;2023-12-07T05:13:27;100009.59;;;4.31;86.79
12536;BME280;6334;48.696;2.114;2023-12-07T05:15:57;100010.37;;;4.40;86.16
12536;BME280;6334;48.696;2.114;2023-12-07T05:18:28;100018.05;;;4.48;85.36
12536;BME280;6334;48.696;2.114;2023-12-07T05:20:58;100021.75;;;4.61;84.94
12536;BME280;6334;48.696;2.114;2023-12-07T05:23:29;100027.02;;;4.60;85.31
12536;BME280;6334;48.696;2.114;2023-12-07T05:25:59;99997.14;;;4.24;85.17
12536;BME280;6334;48.696;2.114;2023-12-07T05:28:30;100025.62;;;4.76;84.93
12536;BME280;6334;48.696;2.114;2023-12-07T05:31:00;100022.70;;;4.52;85.12
12536;BME280;6334;48.696;2.114;2023-12-07T05:33:32;100023.13;;;4.60;85.36
12536;BME280;6334;48.696;2.114;2023-12-07T05:36:04;100028.97;;;4.46;85.76
12536;BME280;6334;48.696;2.114;2023-12-07T05:38:34;100034.30;;;4.85;84.27
12536;BME280;6334;48.696;2.114;2023-12-07T05:41:05;100028.93;;;4.98;83.66
12536;BME280;6334;48.696;2.114;2023-12-07T05:43:35;100023.94;;;4.95;83.95
12536;BME280;6334;48.696;2.114;2023-12-07T05:46:06;100024.46;;;4.62;85.00
12536;BME280;6334;48.696;2.114;2023-12-07T05:48:36;100018.20;;;4.61;84.78
12536;BME280;6334;48.696;2.114;2023-12-07T05:51:10;100027.22;;;5.00;83.79
12536;BME280;6334;48.696;2.114;2023-12-07T05:53:36;100036.58;;;4.81;84.26
12536;BME280;6334;48.696;2.114;2023-12-07T05:56:07;100042.93;;;5.13;84.12
12536;BME280;6334;48.696;2.114;2023-12-07T05:58:37;100041.78;;;4.91;83.87
12536;BME280;6334;48.696;2.114;2023-12-07T06:01:08;100006.23;;;4.59;83.98
12536;BME280;6334;48.696;2.114;2023-12-07T06:03:38;100034.05;;;4.90;84.44
12536;BME280;6334;48.696;2.114;2023-12-07T06:06:09;100024.42;;;4.57;85.26
12536;BME280;6334;48.696;2.114;2023-12-07T06:08:39;100017.30;;;4.60;85.02
12536;BME280;6334;48.696;2.114;2023-12-07T06:11:10;100011.80;;;4.63;85.33
12536;BME280;6334;48.696;2.114;2023-12-07T06:13:40;100007.41;;;4.76;84.30
12536;BME280;6334;48.696;2.114;2023-12-07T06:16:13;100008.28;;;4.65;84.53
12536;BME280;6334;48.696;2.114;2023-12-07T06:18:44;100005.41;;;4.67;84.75
12536;BME280;6334;48.696;2.114;2023-12-07T06:21:14;99996.79;;;4.82;84.41
12536;BME280;6334;48.696;2.114;2023-12-07T06:23:48;99994.91;;;4.78;84.04
12536;BME280;6334;48.696;2.114;2023-12-07T06:26:18;99990.84;;;4.46;85.39
12536;BME280;6334;48.696;2.114;2023-12-07T06:28:48;99981.89;;;4.54;84.87
12536;BME280;6334;48.696;2.114;2023-12-07T06:31:19;99968.83;;;4.75;84.20
12536;BME280;6334;48.696;2.114;2023-12-07T06:33:49;99960.80;;;4.63;84.67
12536;BME280;6334;48.696;2.114;2023-12-07T06:36:20;99960.45;;;4.45;85.32
12536;BME280;6334;48.696;2.114;2023-12-07T06:38:49;99970.42;;;4.48;85.37
12536;BME280;6334;48.696;2.114;2023-12-07T06:41:19;99972.41;;;4.71;85.12
12536;BME280;6334;48.696;2.114;2023-12-07T06:43:49;99978.63;;;4.45;86.24
12536;BME280;6334;48.696;2.114;2023-12-07T06:46:19;99973.27;;;4.74;86.94
12536;BME280;6334;48.696;2.114;2023-12-07T06:48:49;99886.56;;;3.82;85.96
12536;BME280;6334;48.696;2.114;2023-12-07T06:51:18;99958.94;;;4.74;85.18
12536;BME280;6334;48.696;2.114;2023-12-07T06:53:49;99952.04;;;4.92;83.98
12536;BME280;6334;48.696;2.114;2023-12-07T06:56:19;99950.52;;;4.98;83.94
12536;BME280;6334;48.696;2.114;2023-12-07T06:58:50;99957.16;;;4.52;84.75
12536;BME280;6334;48.696;2.114;2023-12-07T07:01:20;99967.09;;;4.74;84.51
12536;BME280;6334;48.696;2.114;2023-12-07T07:03:51;99960.02;;;4.66;84.48
12536;BME280;6334;48.696;2.114;2023-12-07T07:06:20;99949.35;;;4.80;84.00
12536;BME280;6334;48.696;2.114;2023-12-07T07:08:51;99951.28;;;4.65;84.57
12536;BME280;6334;48.696;2.114;2023-12-07T07:11:22;99954.94;;;4.56;84.82
12536;BME280;6334;48.696;2.114;2023-12-07T07:13:52;99953.58;;;4.81;84.83
12536;BME280;6334;48.696;2.114;2023-12-07T07:16:22;99963.16;;;4.54;84.95
12536;BME280;6334;48.696;2.114;2023-12-07T07:18:51;99955.08;;;4.51;85.54
12536;BME280;6334;48.696;2.114;2023-12-07T07:21:22;99949.20;;;4.72;85.09
12536;BME280;6334;48.696;2.114;2023-12-07T07:23:52;99954.24;;;4.67;85.33
12536;BME280;6334;48.696;2.114;2023-12-07T07:26:23;99955.52;;;4.63;84.85
12536;BME280;6334;48.696;2.114;2023-12-07T07:28:53;99892.08;;;4.45;84.49
12536;BME280;6334;48.696;2.114;2023-12-07T07:31:23;99955.81;;;4.90;84.47
12536;BME280;6334;48.696;2.114;2023-12-07T07:33:55;99950.70;;;4.84;84.59
12536;BME280;6334;48.696;2.114;2023-12-07T07:36:25;99949.88;;;4.59;85.26
12536;BME280;6334;48.696;2.114;2023-12-07T07:38:55;99941.20;;;4.65;84.65
12536;BME280;6334;48.696;2.114;2023-12-07T07:41:26;99938.47;;;4.55;85.42
12536;BME280;6334;48.696;2.114;2023-12-07T07:43:56;99932.25;;;4.66;85.62
12536;BME280;6334;48.696;2.114;2023-12-07T07:46:26;99928.44;;;4.43;86.09
12536;BME280;6334;48.696;2.114;2023-12-07T07:48:58;99924.25;;;4.67;85.55
12536;BME280;6334;48.696;2.114;2023-12-07T07:51:28;99881.84;;;4.36;85.14
12536;BME280;6334;48.696;2.114;2023-12-07T07:53:59;99928.77;;;4.65;86.14
12536;BME280;6334;48.696;2.114;2023-12-07T07:56:29;99927.94;;;4.89;84.45
12536;BME280;6334;48.696;2.114;2023-12-07T07:58:59;99922.69;;;4.59;85.77
12536;BME280;6334;48.696;2.114;2023-12-07T08:01:29;99929.30;;;4.75;85.53
12536;BME280;6334;48.696;2.114;2023-12-07T08:03:59;99928.89;;;4.85;85.02
12536;BME280;6334;48.696;2.114;2023-12-07T08:06:30;99921.65;;;4.87;85.29
12536;BME280;6334;48.696;2.114;2023-12-07T08:08:59;99918.00;;;4.43;86.85
12536;BME280;6334;48.696;2.114;2023-12-07T08:11:30;99918.38;;;4.72;85.54
12536;BME280;6334;48.696;2.114;2023-12-07T08:14:00;99914.39;;;4.60;85.67
12536;BME280;6334;48.696;2.114;2023-12-07T08:16:31;99916.13;;;5.06;84.76
12536;BME280;6334;48.696;2.114;2023-12-07T08:19:01;99907.64;;;4.80;85.12
12536;BME280;6334;48.696;2.114;2023-12-07T08:21:32;99907.03;;;4.83;85.52
12536;BME280;6334;48.696;2.114;2023-12-07T08:24:02;99904.75;;;4.88;84.99
12536;BME280;6334;48.696;2.114;2023-12-07T08:26:33;99909.13;;;4.96;84.82
12536;BME280;6334;48.696;2.114;2023-12-07T08:29:03;99896.67;;;5.17;83.65
12536;BME280;6334;48.696;2.114;2023-12-07T08:31:34;99903.36;;;4.86;84.18
12536;BME280;6334;48.696;2.114;2023-12-07T08:34:04;99898.56;;;4.96;84.46
12536;BME280;6334;48.696;2.114;2023-12-07T08:36:36;99870.30;;;4.68;84.09
12536;BME280;6334;48.696;2.114;2023-12-07T08:39:06;99897.37;;;4.71;85.61
12536;BME280;6334;48.696;2.114;2023-12-07T08:41:37;99898.45;;;4.73;85.96
12536;BME280;6334;48.696;2.114;2023-12-07T08:44:07;99891.25;;;5.32;83.92
12536;BME280;6334;48.696;2.114;2023-12-07T08:46:38;99883.62;;;5.40;83.22
12536;BME280;6334;48.696;2.114;2023-12-07T08:49:07;99883.70;;;5.16;84.18
12536;BME280;6334;48.696;2.114;2023-12-07T08:51:37;99885.11;;;5.16;84.06
12536;BME280;6334;48.696;2.114;2023-12-07T08:54:06;99881.89;;;5.24;84.41
12536;BME280;6334;48.696;2.114;2023-12-07T08:56:37;99877.79;;;4.78;84.46
12536;BME280;6334;48.696;2.114;2023-12-07T08:59:08;99851.43;;;5.10;83.55
12536;BME280;6334;48.696;2.114;2023-12-07T09:01:39;99859.67;;;5.21;83.52
12536;BME280;6334;48.696;2.114;2023-12-07T09:04:09;99858.00;;;4.97;83.57
12536;BME280;6334;48.696;2.114;2023-12-07T09:06:39;99854.28;;;5.43;83.21
12536;BME280;6334;48.696;2.114;2023-12-07T09:09:08;99844.31;;;5.16;83.12
12536;BME280;6334;48.696;2.114;2023-12-07T09:11:39;99837.45;;;5.04;83.52
12536;BME280;6334;48.696;2.114;2023-12-07T09:14:09;99830.23;;;5.33;83.01
12536;BME280;6334;48.696;2.114;2023-12-07T09:16:45;99826.78;;;5.09;84.60
12536;BME280;6334;48.696;2.114;2023-12-07T09:19:15;99818.34;;;5.08;84.16
12536;BME280;6334;48.696;2.114;2023-12-07T09:21:45;99808.16;;;5.27;83.28
12536;BME280;6334;48.696;2.114;2023-12-07T09:24:14;99810.47;;;5.39;82.74
12536;BME280;6334;48.696;2.114;2023-12-07T09:26:44;99814.07;;;5.72;81.92
12536;BME280;6334;48.696;2.114;2023-12-07T09:29:14;99768.32;;;5.09;83.58
12536;BME280;6334;48.696;2.114;2023-12-07T09:31:44;99815.41;;;5.35;83.77
12536;BME280;6334;48.696;2.114;2023-12-07T09:34:15;99828.56;;;5.16;84.32
12536;BME280;6334;48.696;2.114;2023-12-07T09:36:45;99833.23;;;5.40;83.33
12536;BME280;6334;48.696;2.114;2023-12-07T09:39:16;99830.91;;;5.25;83.79
12536;BME280;6334;48.696;2.114;2023-12-07T09:41:46;99831.14;;;5.34;83.40
12536;BME280;6334;48.696;2.114;2023-12-07T09:44:17;99834.44;;;5.63;82.59
12536;BME280;6334;48.696;2.114;2023-12-07T09:47:16;99819.33;;;5.44;82.99
12536;BME280;6334;48.696;2.114;2023-12-07T09:49:47;99811.44;;;5.52;82.81
12536;BME280;6334;48.696;2.114;2023-12-07T09:52:17;99801.38;;;5.37;83.84
12536;BME280;6334;48.696;2.114;2023-12-07T09:54:48;99790.54;;;5.47;83.66
12536;BME280;6334;48.696;2.114;2023-12-07T09:57:17;99782.08;;;5.37;82.52
12536;BME280;6334;48.696;2.114;2023-12-07T09:59:48;99774.33;;;5.38;82.99
12536;BME280;6334;48.696;2.114;2023-12-07T10:02:17;99741.33;;;5.35;82.13
12536;BME280;6334;48.696;2.114;2023-12-07T10:04:47;99776.74;;;5.29;83.77
12536;BME280;6334;48.696;2.114;2023-12-07T10:07:16;99760.80;;;5.61;82.18
12536;BME280;6334;48.696;2.114;2023-12-07T10:09:47;99757.80;;;5.49;82.66
12536;BME280;6334;48.696;2.114;2023-12-07T10:12:16;99757.76;;;5.60;81.68
12536;BME280;6334;48.696;2.114;2023-12-07T10:14:46;99761.52;;;5.54;83.08
12536;BME280;6334;48.696;2.114;2023-12-07T10:17:16;99762.12;;;5.58;82.02
12536;BME280;6334;48.696;2.114;2023-12-07T10:19:46;99756.16;;;5.52;83.10
12536;BME280;6334;48.696;2.114;2023-12-07T10:22:16;99750.44;;;5.74;81.74
12536;BME280;6334;48.696;2.114;2023-12-07T10:24:47;99735.84;;;5.67;82.19
12536;BME280;6334;48.696;2.114;2023-12-07T10:27:17;99729.81;;;5.72;81.84
12536;BME280;6334;48.696;2.114;2023-12-07T10:29:47;99725.27;;;5.71;81.31
12536;BME280;6334;48.696;2.114;2023-12-07T10:32:17;99723.91;;;5.88;82.18
12536;BME280;6334;48.696;2.114;2023-12-07T10:34:48;99720.55;;;5.64;82.24
12536;BME280;6334;48.696;2.114;2023-12-07T10:37:18;99709.34;;;5.71;81.64
12536;BME280;6334;48.696;2.114;2023-12-07T10:39:49;99655.08;;;5.24;81.49
12536;BME280;6334;48.696;2.114;2023-12-07T10:42:19;99702.05;;;5.58;81.41
12536;BME280;6334;48.696;2.114;2023-12-07T10:44:57;99701.17;;;5.67;80.89
12536;BME280;6334;48.696;2.114;2023-12-07T10:47:26;99695.48;;;5.81;80.63
12536;BME280;6334;48.696;2.114;2023-12-07T10:49:57;99694.52;;;5.90;80.51
12536;BME280;6334;48.696;2.114;2023-12-07T10:52:25;99683.61;;;5.83;80.74
12536;BME280;6334;48.696;2.114;2023-12-07T10:55:07;99677.55;;;5.96;80.03
12536;BME280;6334;48.696;2.114;2023-12-07T10:57:34;99669.83;;;5.82;80.19
12536;BME280;6334;48.696;2.114;2023-12-07T11:00:04;99661.73;;;5.93;79.62
12536;BME280;6334;48.696;2.114;2023-12-07T11:02:34;99653.94;;;6.03;79.93
12536;BME280;6334;48.696;2.114;2023-12-07T11:05:04;99653.05;;;6.01;80.02
12536;BME280;6334;48.696;2.114;2023-12-07T11:07:57;99652.63;;;6.01;80.04
12536;BME280;6334;48.696;2.114;2023-12-07T11:10:34;99645.69;;;6.01;80.07
12536;BME280;6334;48.696;2.114;2023-12-07T11:13:14;99648.17;;;6.14;79.62
12536;BME280;6334;48.696;2.114;2023-12-07T11:15:42;99638.53;;;5.70;80.02
12536;BME280;6334;48.696;2.114;2023-12-07T11:18:12;99633.50;;;5.93;79.49
12536;BME280;6334;48.696;2.114;2023-12-07T11:20:43;99624.36;;;6.00;80.37
12536;BME280;6334;48.696;2.114;2023-12-07T11:23:15;99614.34;;;5.89;79.00
12536;BME280;6334;48.696;2.114;2023-12-07T11:25:46;99614.77;;;5.87;80.50
12536;BME280;6334;48.696;2.114;2023-12-07T11:28:15;99605.37;;;6.00;80.09
12536;BME280;6334;48.696;2.114;2023-12-07T11:30:46;99606.06;;;5.97;79.41
12536;BME280;6334;48.696;2.114;2023-12-07T11:33:16;99612.66;;;5.95;79.18
12536;BME280;6334;48.696;2.114;2023-12-07T11:36:10;99617.83;;;5.80;80.48
12536;BME280;6334;48.696;2.114;2023-12-07T11:41:29;99614.38;;;6.24;79.80
12536;BME280;6334;48.696;2.114;2023-12-07T11:43:59;99603.39;;;6.04;80.03
12536;BME280;6334;48.696;2.114;2023-12-07T11:46:29;99591.33;;;6.15;79.57
12536;BME280;6334;48.696;2.114;2023-12-07T11:48:58;99590.10;;;6.00;80.97
12536;BME280;6334;48.696;2.114;2023-12-07T11:51:29;99580.59;;;6.18;79.52
12536;BME280;6334;48.696;2.114;2023-12-07T11:53:58;99580.79;;;6.05;79.86
12536;BME280;6334;48.696;2.114;2023-12-07T11:56:38;99570.61;;;6.15;79.65
12536;BME280;6334;48.696;2.114;2023-12-07T11:59:08;99569.38;;;6.00;80.03
12536;BME280;6334;48.696;2.114;2023-12-07T12:01:38;99563.67;;;5.95;79.80
12536;BME280;6334;48.696;2.114;2023-12-07T12:04:07;99553.59;;;6.09;79.93
12536;BME280;6334;48.696;2.114;2023-12-07T12:06:37;99546.75;;;5.90;81.02
12536;BME280;6334;48.696;2.114;2023-12-07T12:09:07;99548.89;;;5.93;79.43
12536;BME280;6334;48.696;2.114;2023-12-07T12:11:36;99539.20;;;6.23;79.67
12536;BME280;6334;48.696;2.114;2023-12-07T12:14:07;99530.08;;;6.00;79.99
12536;BME280;6334;48.696;2.114;2023-12-07T12:16:37;99485.61;;;5.69;80.39
12536;BME280;6334;48.696;2.114;2023-12-07T12:19:08;99511.66;;;6.07;79.08
12536;BME280;6334;48.696;2.114;2023-12-07T12:21:37;99523.67;;;6.21;79.55
12536;BME280;6334;48.696;2.114;2023-12-07T12:24:13;99529.14;;;6.15;80.67
12536;BME280;6334;48.696;2.114;2023-12-07T12:26:43;99520.42;;;6.37;79.76
12536;BME280;6334;48.696;2.114;2023-12-07T12:29:13;99501.53;;;6.26;79.17
12536;BME280;6334;48.696;2.114;2023-12-07T12:31:43;99483.05;;;6.17;79.40
12536;BME280;6334;48.696;2.114;2023-12-07T12:34:23;99470.31;;;6.24;79.62
12536;BME280;6334;48.696;2.114;2023-12-07T12:36:55;99480.10;;;6.14;79.78
12536;BME280;6334;48.696;2.114;2023-12-07T12:39:29;99473.82;;;6.37;78.44
12536;BME280;6334;48.696;2.114;2023-12-07T12:41:57;99462.98;;;6.17;79.54
12536;BME280;6334;48.696;2.114;2023-12-07T12:44:26;99454.52;;;6.26;78.74
12536;BME280;6334;48.696;2.114;2023-12-07T12:46:57;99456.16;;;6.06;80.59
12536;BME280;6334;48.696;2.114;2023-12-07T12:49:37;99448.16;;;6.47;80.02
12536;BME280;6334;48.696;2.114;2023-12-07T12:52:10;99446.43;;;6.31;80.26
12536;BME280;6334;48.696;2.114;2023-12-07T12:54:37;99439.13;;;6.52;79.61
12536;BME280;6334;48.696;2.114;2023-12-07T12:57:08;99426.66;;;6.18;79.22
12536;BME280;6334;48.696;2.114;2023-12-07T12:59:38;99411.59;;;6.23;79.26
12536;BME280;6334;48.696;2.114;2023-12-07T13:02:09;99404.58;;;6.03;80.55
12536;BME280;6334;48.696;2.114;2023-12-07T13:04:38;99416.34;;;6.09;80.63
12536;BME280;6334;48.696;2.114;2023-12-07T13:07:09;99417.84;;;6.29;81.03
12536;BME280;6334;48.696;2.114;2023-12-07T13:09:40;99415.41;;;6.38;80.86
12536;BME280;6334;48.696;2.114;2023-12-07T13:12:10;99362.96;;;6.19;79.22
12536;BME280;6334;48.696;2.114;2023-12-07T13:14:40;99390.80;;;6.17;80.90
12536;BME280;6334;48.696;2.114;2023-12-07T13:17:10;99392.70;;;6.47;80.20
12536;BME280;6334;48.696;2.114;2023-12-07T13:19:40;99389.88;;;6.20;80.85
12536;BME280;6334;48.696;2.114;2023-12-07T13:22:11;99393.05;;;6.48;81.33
12536;BME280;6334;48.696;2.114;2023-12-07T13:24:41;99379.59;;;6.57;81.31
12536;BME280;6334;48.696;2.114;2023-12-07T13:27:12;99368.87;;;6.54;80.72
12536;BME280;6334;48.696;2.114;2023-12-07T13:29:42;99359.36;;;6.56;80.32
12536;BME280;6334;48.696;2.114;2023-12-07T13:32:12;99348.59;;;6.58;80.04
12536;BME280;6334;48.696;2.114;2023-12-07T13:34:42;99348.33;;;6.37;81.23
12536;BME280;6334;48.696;2.114;2023-12-07T13:37:12;99343.23;;;6.16;82.32
12536;BME280;6334;48.696;2.114;2023-12-07T13:39:43;99332.64;;;6.05;82.37
12536;BME280;6334;48.696;2.114;2023-12-07T13:42:12;99325.55;;;6.35;80.57